createdAt,value
2023-01-23T00:09:16.623Z,2.13
2023-01-23T00:19:20.818Z,2.15
2023-01-23T00:29:23.564Z,2.14
2023-01-23T00:39:27.927Z,2.22
2023-01-23T00:49:30.748Z,2.23
2023-01-23T00:59:36.369Z,2.29
2023-01-23T01:09:40.124Z,2.36
2023-01-23T01:19:44.258Z,2.36
2023-01-23T01:29:47.120Z,2.16
2023-01-23T01:39:51.330Z,2.35
2023-01-23T01:49:56.864Z,2.28
2023-01-23T02:00:03.423Z,2.32
2023-01-23T02:10:16.782Z,2.25
2023-01-23T02:20:23.416Z,2.21
2023-01-23T02:30:27.547Z,2.32
2023-01-23T02:40:32.654Z,2.37
2023-01-23T02:50:37.511Z,2.29
2023-01-23T03:00:40.328Z,2.37
2023-01-23T03:10:44.487Z,2.33
2023-01-23T03:20:47.257Z,2.33
2023-01-23T03:30:51.390Z,2.38
2023-01-23T03:41:12.036Z,2.39
2023-01-23T03:51:16.771Z,2.53
2023-01-23T04:01:19.746Z,2.50
2023-01-23T04:11:24.090Z,2.49
2023-01-23T04:21:27.053Z,2.45
2023-01-23T04:31:31.612Z,2.49
2023-01-23T04:41:34.961Z,2.51
2023-01-23T04:51:50.195Z,2.55
2023-01-23T05:01:56.707Z,2.51
2023-01-23T05:12:02.189Z,2.60
2023-01-23T05:22:08.463Z,2.56
2023-01-23T05:32:12.777Z,2.54
2023-01-23T05:42:18.346Z,2.51
2023-01-23T05:52:25.239Z,2.50
2023-01-23T06:02:28.265Z,2.58
2023-01-23T06:12:51.304Z,2.50
2023-01-23T06:22:54.520Z,2.60
2023-01-23T06:32:58.873Z,2.67
2023-01-23T06:43:10.969Z,2.64
2023-01-23T06:53:17.003Z,2.68
2023-01-23T07:03:21.353Z,2.77
2023-01-23T07:13:25.987Z,2.80
2023-01-23T07:23:30.160Z,2.78
2023-01-23T07:33:34.742Z,2.77
2023-01-23T07:43:37.698Z,2.82
2023-01-23T07:53:42.056Z,2.99
2023-01-23T08:03:45.058Z,3.08
2023-01-23T08:13:51.967Z,3.12
2023-01-23T08:23:55.022Z,3.15
2023-01-23T08:33:59.397Z,3.11
2023-01-23T08:44:03.947Z,3.20
2023-01-23T08:54:08.390Z,3.32
2023-01-23T09:04:11.333Z,3.36
2023-01-23T09:14:15.691Z,3.53
2023-01-23T09:24:18.619Z,3.55
2023-01-23T09:34:22.973Z,3.50
2023-01-23T09:44:34.128Z,3.68
2023-01-23T09:54:44.952Z,3.87
2023-01-23T10:04:49.214Z,4.24
2023-01-23T10:15:19.691Z,4.19
2023-01-23T10:25:27.705Z,4.03
2023-01-23T10:35:47.320Z,4.05
2023-01-23T10:45:51.366Z,4.08
2023-01-23T10:55:59.720Z,3.95
2023-01-23T11:06:05.121Z,4.19
2023-01-23T11:16:17.008Z,4.37
2023-01-23T11:26:33.759Z,4.17
2023-01-23T11:36:53.206Z,4.36
2023-01-23T11:47:18.433Z,4.57
2023-01-23T11:57:34.973Z,4.82
2023-01-23T12:07:58.044Z,4.78
2023-01-23T12:18:16.225Z,4.74
2023-01-23T12:28:32.341Z,4.70
2023-01-23T12:38:48.432Z,4.55
2023-01-23T12:48:55.365Z,4.45
2023-01-23T12:59:09.243Z,4.65
2023-01-23T13:09:23.894Z,4.70
2023-01-23T13:19:47.125Z,4.72
2023-01-23T13:29:51.842Z,4.50
2023-01-23T13:40:15.760Z,4.72
2023-01-23T14:22:02.382Z,4.63
2023-01-23T14:32:21.018Z,4.32
2023-01-23T14:42:29.138Z,4.13
2023-01-23T14:52:32.845Z,4.18
2023-01-23T15:02:37.680Z,4.18
2023-01-23T15:12:49.029Z,4.05
2023-01-23T15:22:53.668Z,3.86
2023-01-23T15:32:58.673Z,3.84
2023-01-23T15:43:08.382Z,3.77
2023-01-23T15:53:13.864Z,3.76
2023-01-23T16:03:18.250Z,3.79
2023-01-23T16:13:21.319Z,3.66
2023-01-23T16:23:26.660Z,3.68
2023-01-23T16:33:29.674Z,3.77
2023-01-23T16:43:35.510Z,3.72
2023-01-23T16:53:40.683Z,3.62
2023-01-23T17:03:45.834Z,3.72
2023-01-23T17:13:49.816Z,3.75
2023-01-23T17:23:54.299Z,3.90
2023-01-23T17:33:57.394Z,3.73
2023-01-23T17:44:01.855Z,3.83
2023-01-23T17:54:05.820Z,3.70
2023-01-23T18:04:17.031Z,3.75
2023-01-23T18:14:35.571Z,3.65
2023-01-23T18:24:40.566Z,3.64
2023-01-23T18:35:06.616Z,3.65
2023-01-23T18:45:16.585Z,3.71
2023-01-23T18:55:31.788Z,3.68
2023-01-23T19:05:35.355Z,3.62
2023-01-23T19:15:45.870Z,3.65
2023-01-23T19:25:49.319Z,3.73
2023-01-23T19:35:56.713Z,3.68
2023-01-23T19:46:00.888Z,3.64
2023-01-23T19:56:05.947Z,3.60
2023-01-23T20:06:09.949Z,3.76
2023-01-23T20:16:20.682Z,3.69
2023-01-23T20:26:24.543Z,3.68
2023-01-23T20:36:29.090Z,3.75
2023-01-23T20:46:32.325Z,3.69
2023-01-23T20:56:37.198Z,3.46
2023-01-23T21:06:40.434Z,3.65
2023-01-23T21:16:44.908Z,3.58
2023-01-23T21:26:48.174Z,3.52
2023-01-23T21:36:53.546Z,3.51
2023-01-23T21:46:57.019Z,3.68
2023-01-23T21:57:01.415Z,3.55
2023-01-23T22:07:04.529Z,3.48
2023-01-23T22:17:09.380Z,3.53
2023-01-23T22:27:12.611Z,3.48
2023-01-23T22:37:17.270Z,3.58
2023-01-23T22:47:20.372Z,3.39
2023-01-23T22:57:25.035Z,3.41
2023-01-23T23:07:28.373Z,3.55
2023-01-23T23:17:32.898Z,3.49
2023-01-23T23:27:35.947Z,3.58
2023-01-23T23:37:40.410Z,3.49
2023-01-23T23:47:43.395Z,3.52
2023-01-23T23:57:47.751Z,3.51
